createdAt,value
2022-07-28T00:00:52.484Z,4.18
2022-07-28T00:03:19.292Z,4.53
2022-07-28T00:05:47.121Z,4.75
2022-07-28T00:08:16.681Z,4.80
2022-07-28T00:10:43.370Z,4.75
2022-07-28T00:13:13.324Z,4.18
2022-07-28T00:15:40.280Z,4.45
2022-07-28T00:18:06.993Z,4.35
2022-07-28T00:20:33.703Z,4.40
2022-07-28T00:23:00.369Z,4.22
2022-07-28T00:25:28.266Z,4.22
2022-07-28T00:27:54.946Z,3.80
2022-07-28T00:30:21.737Z,4.60
2022-07-28T00:32:48.481Z,5.30
2022-07-28T00:35:15.680Z,4.97
2022-07-28T00:37:42.423Z,4.63
2022-07-28T00:40:10.126Z,4.97
2022-07-28T00:42:37.173Z,5.18
2022-07-28T00:45:04.624Z,4.15
2022-07-28T00:47:33.708Z,4.97
2022-07-28T00:50:02.490Z,5.07
2022-07-28T00:52:29.858Z,4.55
2022-07-28T00:54:58.784Z,4.78
2022-07-28T00:57:25.488Z,4.70
2022-07-28T00:59:52.140Z,4.63
2022-07-28T01:02:19.260Z,4.55
2022-07-28T01:04:46.689Z,4.55
2022-07-28T01:07:23.534Z,4.40
2022-07-28T01:09:59.096Z,4.72
2022-07-28T01:12:30.686Z,4.65
2022-07-28T01:15:28.768Z,4.60
2022-07-28T01:18:07.084Z,4.60
2022-07-28T01:20:52.567Z,5.00
2022-07-28T01:23:54.350Z,4.30
2022-07-28T01:26:51.652Z,4.55
2022-07-28T01:29:47.944Z,4.55
2022-07-28T01:32:20.919Z,4.60
2022-07-28T01:34:56.111Z,4.45
2022-07-28T01:37:29.123Z,4.68
2022-07-28T01:40:01.423Z,4.57
2022-07-28T01:42:33.473Z,4.60
2022-07-28T01:45:01.732Z,4.43
2022-07-28T01:47:30.092Z,4.50
2022-07-28T01:50:00.859Z,4.55
2022-07-28T01:52:30.214Z,4.90
2022-07-28T01:54:59.147Z,4.30
2022-07-28T01:57:27.720Z,4.95
2022-07-28T01:59:56.302Z,5.47
2022-07-28T02:02:23.619Z,4.15
2022-07-28T02:04:52.394Z,4.75
2022-07-28T02:07:21.192Z,4.53
2022-07-28T02:09:48.395Z,4.75
2022-07-28T02:12:18.507Z,4.32
2022-07-28T02:14:48.978Z,4.57
2022-07-28T02:17:26.667Z,4.72
2022-07-28T02:19:55.147Z,4.05
2022-07-28T02:22:21.841Z,4.07
2022-07-28T02:24:48.671Z,4.45
2022-07-28T02:27:22.416Z,5.18
2022-07-28T02:30:03.225Z,4.57
2022-07-28T02:32:50.306Z,4.82
2022-07-28T02:35:19.626Z,3.95
2022-07-28T02:37:54.220Z,3.97
2022-07-28T02:40:23.511Z,4.53
2022-07-28T02:42:51.877Z,3.72
2022-07-28T02:45:22.107Z,3.92
2022-07-28T02:47:52.628Z,4.32
2022-07-28T02:50:23.166Z,3.60
2022-07-28T02:52:51.754Z,4.00
2022-07-28T02:55:18.967Z,3.90
2022-07-28T02:57:46.913Z,4.68
2022-07-28T03:00:14.569Z,4.55
2022-07-28T03:02:46.749Z,4.30
2022-07-28T03:05:15.635Z,4.10
2022-07-28T03:07:51.130Z,4.30
2022-07-28T03:10:34.267Z,3.95
2022-07-28T03:13:03.776Z,4.30
2022-07-28T03:15:31.209Z,3.58
2022-07-28T03:17:58.754Z,4.00
2022-07-28T03:20:25.520Z,3.63
2022-07-28T03:22:52.277Z,3.55
2022-07-28T03:25:26.608Z,3.63
2022-07-28T03:27:56.066Z,3.47
2022-07-28T03:30:32.172Z,4.20
2022-07-28T03:35:28.664Z,3.85
2022-07-28T03:37:59.221Z,3.75
2022-07-28T03:40:29.687Z,4.35
2022-07-28T03:42:57.560Z,4.05
2022-07-28T03:45:24.759Z,3.95
2022-07-28T03:47:54.216Z,3.80
2022-07-28T03:50:23.924Z,3.72
2022-07-28T03:52:51.315Z,3.83
2022-07-28T03:55:18.753Z,4.43
2022-07-28T03:57:46.200Z,3.83
2022-07-28T04:00:14.888Z,3.55
2022-07-28T04:02:43.867Z,3.70
2022-07-28T04:05:13.965Z,3.40
2022-07-28T04:07:41.793Z,4.20
2022-07-28T04:10:11.287Z,3.60
2022-07-28T04:12:55.443Z,3.60
2022-07-28T04:15:28.013Z,3.35
2022-07-28T04:17:55.764Z,3.55
2022-07-28T04:20:24.324Z,5.03
2022-07-28T04:22:51.670Z,3.05
2022-07-28T04:25:20.785Z,4.68
2022-07-28T04:27:48.256Z,3.67
2022-07-28T04:30:17.903Z,3.83
2022-07-28T04:32:47.499Z,3.65
2022-07-28T04:35:17.469Z,3.20
2022-07-28T04:37:46.107Z,3.40
2022-07-28T04:40:13.837Z,3.78
2022-07-28T04:42:41.421Z,3.80
2022-07-28T04:45:11.681Z,3.63
2022-07-28T04:47:38.977Z,3.28
2022-07-28T04:50:07.491Z,3.40
2022-07-28T04:52:34.198Z,3.55
2022-07-28T04:55:01.162Z,3.10
2022-07-28T04:57:29.982Z,3.15
2022-07-28T04:59:58.302Z,3.25
2022-07-28T05:02:25.093Z,3.00
2022-07-28T05:04:52.173Z,3.00
2022-07-28T05:07:18.939Z,3.15
2022-07-28T05:09:45.746Z,3.30
2022-07-28T05:12:12.539Z,3.45
2022-07-28T05:14:39.754Z,3.30
2022-07-28T05:17:06.862Z,2.95
2022-07-28T05:19:35.760Z,3.38
2022-07-28T05:22:02.406Z,3.50
2022-07-28T05:24:29.214Z,3.30
2022-07-28T05:26:55.898Z,3.45
2022-07-28T05:29:22.834Z,3.35
2022-07-28T05:31:49.551Z,2.85
2022-07-28T05:34:16.650Z,3.10
2022-07-28T05:36:44.085Z,2.85
2022-07-28T05:39:10.791Z,2.97
2022-07-28T05:41:37.615Z,2.72
2022-07-28T05:44:04.367Z,3.38
2022-07-28T05:46:31.096Z,3.42
2022-07-28T05:48:57.910Z,3.50
2022-07-28T05:51:24.671Z,3.13
2022-07-28T05:53:51.939Z,3.00
2022-07-28T05:56:18.580Z,3.03
2022-07-28T05:58:45.204Z,2.95
2022-07-28T06:01:11.881Z,3.30
2022-07-28T06:03:42.374Z,3.30
2022-07-28T06:06:16.067Z,3.42
2022-07-28T06:08:44.404Z,3.78
2022-07-28T06:11:11.811Z,3.45
2022-07-28T06:13:46.346Z,3.58
2022-07-28T06:16:13.482Z,4.53
2022-07-28T06:18:40.327Z,4.22
2022-07-28T06:21:06.981Z,3.58
2022-07-28T06:23:33.933Z,4.47
2022-07-28T06:26:00.805Z,4.53
2022-07-28T06:28:27.564Z,4.07
2022-07-28T06:30:54.283Z,4.05
2022-07-28T06:33:21.041Z,4.03
2022-07-28T06:35:51.072Z,4.45
2022-07-28T06:38:20.572Z,5.00
2022-07-28T06:40:48.322Z,4.93
2022-07-28T06:43:15.084Z,5.53
2022-07-28T06:45:41.868Z,5.25
2022-07-28T06:48:08.872Z,5.13
2022-07-28T06:50:39.384Z,5.68
2022-07-28T06:53:06.468Z,6.07
2022-07-28T06:55:35.416Z,5.97
2022-07-28T06:58:03.732Z,6.15
2022-07-28T07:00:31.278Z,6.47
2022-07-28T07:02:58.100Z,5.38
2022-07-28T07:05:25.883Z,5.57
2022-07-28T07:07:52.783Z,4.85
2022-07-28T07:10:19.486Z,4.75
2022-07-28T07:12:46.291Z,5.43
2022-07-28T07:15:13.065Z,7.13
2022-07-28T07:17:39.889Z,7.10
2022-07-28T07:20:07.139Z,7.38
2022-07-28T07:22:33.988Z,6.97
2022-07-28T07:25:10.660Z,6.28
2022-07-28T07:27:37.771Z,5.20
2022-07-28T07:30:06.214Z,4.40
2022-07-28T07:32:33.211Z,4.78
2022-07-28T07:35:00.012Z,5.38
2022-07-28T07:37:27.629Z,5.25
2022-07-28T07:39:54.621Z,4.72
2022-07-28T07:42:21.314Z,5.00
2022-07-28T07:44:51.538Z,4.50
2022-07-28T07:47:18.695Z,4.78
2022-07-28T07:49:46.508Z,4.82
2022-07-28T07:52:14.507Z,4.80
2022-07-28T07:54:41.675Z,4.85
2022-07-28T07:57:08.606Z,5.72
2022-07-28T07:59:35.640Z,4.50
2022-07-28T08:02:02.609Z,5.07
2022-07-28T08:04:29.616Z,5.03
2022-07-28T08:06:56.483Z,3.97
2022-07-28T08:09:23.297Z,4.10
2022-07-28T08:11:50.010Z,3.25
2022-07-28T08:14:17.629Z,4.57
2022-07-28T08:16:47.926Z,4.10
2022-07-28T08:19:14.593Z,3.92
2022-07-28T08:21:41.299Z,4.63
2022-07-28T08:24:08.863Z,4.55
2022-07-28T08:26:36.297Z,3.90
2022-07-28T08:29:03.166Z,4.20
2022-07-28T08:31:29.924Z,4.25
2022-07-28T08:34:03.401Z,3.75
2022-07-28T08:36:32.080Z,3.80
2022-07-28T08:38:58.787Z,4.72
2022-07-28T08:41:33.424Z,4.47
2022-07-28T08:44:04.139Z,4.00
2022-07-28T08:46:38.646Z,4.20
2022-07-28T08:49:08.878Z,3.72
2022-07-28T08:51:37.740Z,4.15
2022-07-28T08:54:06.091Z,4.72
2022-07-28T08:56:33.098Z,4.35
2022-07-28T08:59:01.006Z,4.82
2022-07-28T09:01:38.650Z,5.00
2022-07-28T09:04:08.744Z,3.50
2022-07-28T09:06:41.959Z,4.10
2022-07-28T09:09:11.038Z,4.43
2022-07-28T09:11:38.070Z,4.10
2022-07-28T09:14:05.942Z,4.55
2022-07-28T09:16:33.051Z,4.05
2022-07-28T09:18:59.882Z,4.70
2022-07-28T09:21:26.844Z,4.03
2022-07-28T09:23:53.613Z,4.65
2022-07-28T09:26:20.398Z,3.95
2022-07-28T09:28:48.564Z,4.47
2022-07-28T09:31:17.020Z,4.43
2022-07-28T09:34:01.160Z,3.80
2022-07-28T09:36:32.532Z,4.70
2022-07-28T09:38:59.398Z,4.30
2022-07-28T09:41:26.178Z,3.67
2022-07-28T09:43:55.786Z,4.00
2022-07-28T09:46:25.564Z,4.30
2022-07-28T09:48:56.199Z,3.80
2022-07-28T09:51:27.339Z,4.30
2022-07-28T09:54:08.259Z,3.75
2022-07-28T09:56:35.794Z,3.92
2022-07-28T09:59:03.751Z,4.10
2022-07-28T10:01:35.803Z,4.70
2022-07-28T10:04:04.241Z,4.28
2022-07-28T10:06:33.701Z,3.33
2022-07-28T10:09:02.664Z,2.90
2022-07-28T10:11:32.009Z,3.10
2022-07-28T10:14:03.131Z,3.17
2022-07-28T10:16:34.217Z,2.70
2022-07-28T10:19:03.360Z,3.40
2022-07-28T10:21:33.576Z,3.60
2022-07-28T10:24:05.708Z,2.92
2022-07-28T10:26:48.476Z,3.25
2022-07-28T10:29:20.506Z,2.72
2022-07-28T10:31:51.883Z,3.13
2022-07-28T10:34:25.521Z,3.20
2022-07-28T10:36:55.748Z,3.55
2022-07-28T10:39:29.130Z,3.08
2022-07-28T10:41:56.555Z,2.92
2022-07-28T10:44:24.497Z,3.20
2022-07-28T10:46:52.470Z,3.10
2022-07-28T10:49:20.897Z,3.13
2022-07-28T10:52:02.429Z,3.08
2022-07-28T10:54:47.291Z,3.10
2022-07-28T10:57:16.378Z,2.92
2022-07-28T11:00:12.222Z,2.78
2022-07-28T11:02:52.393Z,3.05
2022-07-28T11:05:42.631Z,3.50
2022-07-28T11:08:29.113Z,2.90
2022-07-28T11:11:07.411Z,3.28
2022-07-28T11:13:40.998Z,3.15
2022-07-28T11:16:28.230Z,3.13
2022-07-28T11:19:07.561Z,3.30
2022-07-28T11:21:39.818Z,3.13
2022-07-28T11:24:07.854Z,3.53
2022-07-28T11:26:36.327Z,3.55
2022-07-28T11:29:04.036Z,2.60
2022-07-28T11:31:46.006Z,3.55
2022-07-28T11:34:15.122Z,2.97
2022-07-28T11:36:58.359Z,3.00
2022-07-28T11:39:27.271Z,3.40
2022-07-28T11:41:54.159Z,3.30
2022-07-28T11:44:30.472Z,3.10
2022-07-28T11:47:20.821Z,3.40
2022-07-28T11:50:11.970Z,3.38
2022-07-28T11:52:39.731Z,3.10
2022-07-28T11:55:06.638Z,2.97
2022-07-28T11:57:41.301Z,3.90
2022-07-28T12:00:08.778Z,2.88
2022-07-28T12:02:36.229Z,3.65
2022-07-28T12:05:06.899Z,3.58
2022-07-28T12:07:37.402Z,3.00
2022-07-28T12:10:52.249Z,3.78
2022-07-28T12:13:13.841Z,3.20
2022-07-28T12:15:40.713Z,2.83
2022-07-28T12:18:11.964Z,3.55
2022-07-28T12:20:48.727Z,3.00
2022-07-28T12:23:15.747Z,3.28
2022-07-28T12:25:45.133Z,2.97
2022-07-28T12:28:21.689Z,3.05
2022-07-28T12:30:49.571Z,3.35
2022-07-28T12:33:27.467Z,3.40
2022-07-28T12:35:58.841Z,3.00
2022-07-28T12:38:27.447Z,3.35
2022-07-28T12:40:54.288Z,3.40
2022-07-28T12:43:22.923Z,3.80
2022-07-28T12:45:49.856Z,3.60
2022-07-28T12:48:18.831Z,2.90
2022-07-28T12:50:46.127Z,3.83
2022-07-28T12:53:13.307Z,3.63
2022-07-28T12:55:44.003Z,3.45
2022-07-28T12:58:27.419Z,3.90
2022-07-28T13:00:55.343Z,3.17
2022-07-28T13:03:26.658Z,3.35
2022-07-28T13:06:10.263Z,4.40
2022-07-28T13:08:44.131Z,3.90
2022-07-28T13:11:42.083Z,3.58
2022-07-28T13:14:00.698Z,3.60
2022-07-28T13:16:28.701Z,3.80
2022-07-28T13:18:58.530Z,3.83
2022-07-28T13:21:56.593Z,3.40
2022-07-28T13:24:26.218Z,3.22
2022-07-28T13:26:52.968Z,3.33
2022-07-28T13:29:19.814Z,3.38
2022-07-28T13:31:46.812Z,3.25
2022-07-28T13:34:14.025Z,4.10
2022-07-28T13:36:41.808Z,3.45
2022-07-28T13:39:10.885Z,3.53
2022-07-28T13:41:57.865Z,3.70
2022-07-28T13:44:25.362Z,3.55
2022-07-28T13:46:52.315Z,3.72
2022-07-28T13:49:21.268Z,4.00
2022-07-28T13:51:49.051Z,3.85
2022-07-28T13:54:19.022Z,3.83
2022-07-28T13:57:02.518Z,3.90
2022-07-28T13:59:29.393Z,3.80
2022-07-28T14:01:56.282Z,3.85
2022-07-28T14:04:23.425Z,3.93
2022-07-28T14:06:50.572Z,3.58
2022-07-28T14:09:18.414Z,4.25
2022-07-28T14:11:50.153Z,3.70
2022-07-28T14:14:23.832Z,3.57
2022-07-28T14:16:54.514Z,3.97
2022-07-28T14:19:39.043Z,3.88
2022-07-28T14:22:12.806Z,3.97
2022-07-28T14:24:41.746Z,3.95
2022-07-28T14:27:08.601Z,3.67
2022-07-28T14:29:37.744Z,4.13
2022-07-28T14:32:04.707Z,4.22
2022-07-28T14:34:31.422Z,3.88
2022-07-28T14:37:01.205Z,4.32
2022-07-28T14:39:32.384Z,3.55
2022-07-28T14:41:59.031Z,4.28
2022-07-28T14:44:26.701Z,3.58
2022-07-28T14:46:53.610Z,3.58
2022-07-28T14:49:20.394Z,3.90
2022-07-28T14:51:47.187Z,4.28
2022-07-28T14:54:14.428Z,3.90
2022-07-28T14:56:41.265Z,4.40
2022-07-28T14:59:07.921Z,3.70
2022-07-28T15:01:36.536Z,3.50
2022-07-28T15:04:04.240Z,3.78
2022-07-28T15:06:31.119Z,3.78
2022-07-28T15:08:58.482Z,4.32
2022-07-28T15:11:25.737Z,4.18
2022-07-28T15:13:52.502Z,3.78
2022-07-28T15:16:19.281Z,4.35
2022-07-28T15:18:46.121Z,3.92
2022-07-28T15:21:16.463Z,4.20
2022-07-28T15:23:44.144Z,4.50
2022-07-28T15:26:11.273Z,3.78
2022-07-28T15:28:39.605Z,4.22
2022-07-28T15:31:08.495Z,4.05
2022-07-28T15:33:47.689Z,4.57
2022-07-28T15:36:15.664Z,4.32
2022-07-28T15:38:47.478Z,4.20
2022-07-28T15:41:19.880Z,4.25
2022-07-28T15:43:47.005Z,4.03
2022-07-28T15:46:14.352Z,3.97
2022-07-28T15:48:42.886Z,4.38
2022-07-28T15:51:09.898Z,4.25
2022-07-28T15:53:37.196Z,4.07
2022-07-28T15:56:04.762Z,4.45
2022-07-28T15:58:31.822Z,4.32
2022-07-28T16:00:59.376Z,4.22
2022-07-28T16:03:29.771Z,4.30
2022-07-28T16:05:57.162Z,4.68
2022-07-28T16:08:23.910Z,4.10
2022-07-28T16:10:54.375Z,4.70
2022-07-28T16:13:28.644Z,4.28
2022-07-28T16:16:05.955Z,5.00
2022-07-28T16:18:37.247Z,4.43
2022-07-28T16:21:04.587Z,4.75
2022-07-28T16:23:31.515Z,4.45
2022-07-28T16:25:58.535Z,4.20
2022-07-28T16:28:25.188Z,4.47
2022-07-28T16:30:51.945Z,4.53
2022-07-28T16:33:18.786Z,4.40
2022-07-28T16:35:45.678Z,3.80
2022-07-28T16:38:12.827Z,4.03
2022-07-28T16:40:40.798Z,4.70
2022-07-28T16:43:07.676Z,5.00
2022-07-28T16:45:35.378Z,4.45
2022-07-28T16:48:04.350Z,4.60
2022-07-28T16:50:32.590Z,4.97
2022-07-28T16:53:00.785Z,4.22
2022-07-28T16:55:27.439Z,5.03
2022-07-28T16:57:55.270Z,4.45
2022-07-28T17:00:23.859Z,4.22
2022-07-28T17:02:50.535Z,4.55
2022-07-28T17:05:17.606Z,4.40
2022-07-28T17:07:45.775Z,4.75
2022-07-28T17:10:14.928Z,4.75
2022-07-28T17:12:49.799Z,4.25
2022-07-28T17:15:22.809Z,4.85
2022-07-28T17:17:52.489Z,4.32
2022-07-28T17:20:19.350Z,4.38
2022-07-28T17:22:46.081Z,4.50
2022-07-28T17:25:43.637Z,4.38
2022-07-28T17:27:59.852Z,4.68
2022-07-28T17:30:29.931Z,4.95
2022-07-28T17:32:58.958Z,4.20
2022-07-28T17:35:34.551Z,4.15
2022-07-28T17:38:03.619Z,4.40
2022-07-28T17:40:30.402Z,4.68
2022-07-28T17:42:57.049Z,4.00
2022-07-28T17:45:24.434Z,4.57
2022-07-28T17:47:51.597Z,4.68
2022-07-28T17:50:18.452Z,4.80
2022-07-28T17:52:45.752Z,4.68
2022-07-28T17:55:28.325Z,4.22
2022-07-28T17:57:57.717Z,4.55
2022-07-28T18:00:24.688Z,4.65
2022-07-28T18:02:51.445Z,4.53
2022-07-28T18:05:18.356Z,4.00
2022-07-28T18:07:51.116Z,4.40
2022-07-28T18:10:24.736Z,4.07
2022-07-28T18:12:52.056Z,4.65
2022-07-28T18:15:19.018Z,4.38
2022-07-28T18:17:55.270Z,4.30
2022-07-28T18:20:23.223Z,4.60
2022-07-28T18:22:50.594Z,4.70
2022-07-28T18:25:17.381Z,4.82
2022-07-28T18:27:44.181Z,4.68
2022-07-28T18:30:11.425Z,4.93
2022-07-28T18:32:38.075Z,5.07
2022-07-28T18:35:05.074Z,5.13
2022-07-28T18:37:31.744Z,4.53
2022-07-28T18:39:58.374Z,4.60
2022-07-28T18:42:25.029Z,4.70
2022-07-28T18:44:51.718Z,4.13
2022-07-28T18:47:19.229Z,4.43
2022-07-28T18:49:45.879Z,4.50
2022-07-28T18:52:12.622Z,4.65
2022-07-28T18:54:39.278Z,5.07
2022-07-28T18:57:05.918Z,4.80
2022-07-28T18:59:32.769Z,4.97
2022-07-28T19:01:59.679Z,4.95
2022-07-28T19:04:26.449Z,4.40
2022-07-28T19:06:53.202Z,4.80
2022-07-28T19:09:19.920Z,4.40
2022-07-28T19:11:46.944Z,4.25
2022-07-28T19:14:15.666Z,4.30
2022-07-28T19:16:43.227Z,4.78
2022-07-28T19:19:10.178Z,4.25
2022-07-28T19:21:36.840Z,4.35
2022-07-28T19:24:04.188Z,4.82
2022-07-28T19:26:30.917Z,4.30
2022-07-28T19:28:57.905Z,4.30
2022-07-28T19:31:25.548Z,4.40
2022-07-28T19:33:52.682Z,4.00
2022-07-28T19:36:20.147Z,4.13
2022-07-28T19:38:46.811Z,4.20
2022-07-28T19:41:13.572Z,4.45
2022-07-28T19:43:40.337Z,4.85
2022-07-28T19:46:07.365Z,4.53
2022-07-28T19:48:34.326Z,4.13
2022-07-28T19:51:01.049Z,4.60
2022-07-28T19:53:32.074Z,4.22
2022-07-28T19:56:01.283Z,4.30
2022-07-28T19:58:28.489Z,4.35
2022-07-28T20:00:56.416Z,4.25
2022-07-28T20:04:01.980Z,4.00
2022-07-28T20:06:10.277Z,4.25
2022-07-28T20:08:37.026Z,4.40
2022-07-28T20:11:03.676Z,4.65
2022-07-28T20:13:30.426Z,4.05
2022-07-28T20:15:57.091Z,4.63
2022-07-28T20:18:23.722Z,4.35
2022-07-28T20:20:53.876Z,4.10
2022-07-28T20:23:20.658Z,4.30
2022-07-28T20:25:47.336Z,4.40
2022-07-28T20:28:14.073Z,4.75
2022-07-28T20:30:40.968Z,4.53
2022-07-28T20:33:08.333Z,3.88
2022-07-28T20:35:35.159Z,4.13
2022-07-28T20:38:03.374Z,4.43
2022-07-28T20:40:30.035Z,4.28
2022-07-28T20:42:56.722Z,3.58
2022-07-28T20:45:23.882Z,4.47
2022-07-28T20:47:50.594Z,4.43
2022-07-28T20:50:17.653Z,3.63
2022-07-28T20:52:44.420Z,4.38
2022-07-28T20:55:11.476Z,4.32
2022-07-28T20:57:38.573Z,4.35
2022-07-28T21:00:07.422Z,3.97
2022-07-28T21:02:34.540Z,4.07
2022-07-28T21:05:01.290Z,4.13
2022-07-28T21:08:00.825Z,3.85
2022-07-28T21:10:14.927Z,4.28
2022-07-28T21:12:41.671Z,3.63
2022-07-28T21:15:09.806Z,3.97
2022-07-28T21:17:36.882Z,3.72
2022-07-28T21:20:05.481Z,4.20
2022-07-28T21:22:32.216Z,4.15
2022-07-28T21:24:59.208Z,4.53
2022-07-28T21:27:25.897Z,3.55
2022-07-28T21:32:18.540Z,4.03
2022-07-28T21:34:45.583Z,3.85
2022-07-28T21:37:13.115Z,3.97
2022-07-28T21:39:40.552Z,3.85
2022-07-28T21:42:08.808Z,4.35
2022-07-28T21:44:37.203Z,3.78
2022-07-28T21:47:04.404Z,3.60
2022-07-28T21:49:32.295Z,4.20
2022-07-28T21:51:59.401Z,4.07
2022-07-28T21:54:26.411Z,3.85
2022-07-28T21:56:53.084Z,4.35
2022-07-28T21:59:19.885Z,3.55
2022-07-28T22:01:46.845Z,3.78
2022-07-28T22:04:13.970Z,3.85
2022-07-28T22:06:41.075Z,3.95
2022-07-28T22:09:13.063Z,4.00
2022-07-28T22:11:39.696Z,3.70
2022-07-28T22:14:06.366Z,3.60
2022-07-28T22:16:33.227Z,4.15
2022-07-28T22:18:59.984Z,3.95
2022-07-28T22:21:26.711Z,4.43
2022-07-28T22:23:53.398Z,3.72
2022-07-28T22:26:20.111Z,3.40
2022-07-28T22:28:46.875Z,3.70
2022-07-28T22:31:13.819Z,3.72
2022-07-28T22:33:40.785Z,3.95
2022-07-28T22:36:08.863Z,3.80
2022-07-28T22:38:36.184Z,3.53
2022-07-28T22:41:03.520Z,3.47
2022-07-28T22:43:33.049Z,4.00
2022-07-28T22:45:59.805Z,3.88
2022-07-28T22:48:26.550Z,3.95
2022-07-28T22:50:53.233Z,3.78
2022-07-28T22:53:19.913Z,3.90
2022-07-28T22:55:46.583Z,3.95
2022-07-28T22:58:13.238Z,3.60
2022-07-28T23:00:40.052Z,3.75
2022-07-28T23:03:07.241Z,3.95
2022-07-28T23:05:36.758Z,3.63
2022-07-28T23:08:03.521Z,4.03
2022-07-28T23:10:30.555Z,4.28
2022-07-28T23:12:58.882Z,4.13
2022-07-28T23:15:40.657Z,4.07
2022-07-28T23:18:10.706Z,3.90
2022-07-28T23:20:39.105Z,4.18
2022-07-28T23:23:06.001Z,4.00
2022-07-28T23:25:33.046Z,3.92
2022-07-28T23:28:00.580Z,4.30
2022-07-28T23:30:27.292Z,4.15
2022-07-28T23:32:54.725Z,4.50
2022-07-28T23:35:21.362Z,4.43
2022-07-28T23:37:48.073Z,4.70
2022-07-28T23:40:14.958Z,4.22
2022-07-28T23:42:41.859Z,4.05
2022-07-28T23:45:09.210Z,4.28
2022-07-28T23:47:36.020Z,5.22
2022-07-28T23:50:04.995Z,3.70
2022-07-28T23:52:31.674Z,4.40
2022-07-28T23:54:58.841Z,4.50
2022-07-28T23:57:25.476Z,4.55
2022-07-28T23:59:57.947Z,4.90
